Energy IVy — A8UO8 — position and weather

sailwx.info

Track history (hours):
 
Tides and Currents Weather Stations Pressure Air Temp Water Temp Dewpoint Dewpoint Depression Visibility Wind Speed Wind Dir Waves Ship Positions

Energy IVy

Last reported at 2014-Nov-27 10:32 UTC. Time now 2014-Nov-27 10:37 UTC.
Position N 36°07' W 005°22'.

Length 180 m; draft 6.2 m.

Type: Cargo ship. MMSI: 636091925.

Date/timePositionNaut miles runAvg speedWind from/ knotsBaromVisibWave heightAir tempDewpointWater temp
2014-Nov-27 10:32N 36°07' W 005°22'0 0.0
2014-Nov-27 09:32N 36°07' W 005°22'0 0.0
2014-Nov-27 08:32N 36°07' W 005°22'0 0.0
2014-Nov-27 07:19N 36°07' W 005°22'0 0.0
2014-Nov-27 05:26N 36°07' W 005°22'0 0.1
2014-Nov-27 04:32N 36°07' W 005°22'1 1.5
2014-Nov-27 03:33N 36°06' W 005°21'21811.9
2014-Nov-26 09:11N 37°16' W 001°03'913.8
2014-Nov-26 08:34N 37°21' W 000°55'1514.1
2014-Nov-26 07:31N 37°30' W 000°40'1413.9
2014-Nov-26 06:32N 37°40' W 000°28'1513.6
2014-Nov-26 05:24N 37°53' W 000°18'  
2014-Nov-23 11:33N 39°26' E 001°29'1211.6
2014-Nov-23 10:33N 39°21' E 001°42'1111.4
2014-Nov-23 09:33N 39°16' E 001°56'1111.1
2014-Nov-23 08:33N 39°11' E 002°08'1111.3
2014-Nov-23 07:33N 39°06' E 002°22'1111.3
2014-Nov-23 06:32N 39°02' E 002°35'1111.1
2014-Nov-23 05:33N 38°60' E 002°49'1111.1
2014-Nov-23 04:33N 38°58' E 003°03'1111.3
2014-Nov-23 03:33N 38°56' E 003°17'1111.2
2014-Nov-23 02:33N 38°54' E 003°32'1211.1
2014-Nov-23 01:31N 38°52' E 003°46'1111.1
2014-Nov-23 00:31N 38°50' E 004°00'1111.0
2014-Nov-22 23:31N 38°48' E 004°14'1111.1
2014-Nov-22 22:33N 38°46' E 004°28'4012.0
2014-Nov-22 19:14N 38°38' E 005°18'2411.6
2014-Nov-22 17:10N 38°33' E 005°48'711.1
2014-Nov-22 16:33N 38°32' E 005°56'2511.2
2014-Nov-22 14:22N 38°27' E 006°27'3612.0
2014-Nov-22 11:21N 38°19' E 007°12'10 8.8
2014-Nov-22 10:10N 38°17' E 007°25'4311.3
2014-Nov-22 06:20N 38°07' E 008°18'1311.1
2014-Nov-22 05:10N 38°04' E 008°34'4110.7
2014-Nov-22 01:20N 37°54' E 009°25'910.8
2014-Nov-22 00:33N 37°52' E 009°35'  
2014-Nov-19 13:34N 36°24' E 022°49'4310.1
2014-Nov-19 09:21N 36°37' E 023°39'1810.0
2014-Nov-19 07:33N 36°47' E 023°59'1010.6
2014-Nov-19 06:34N 36°52' E 024°10'1111.1
2014-Nov-19 05:33N 36°58' E 024°22'1211.5
2014-Nov-19 04:33N 37°04' E 024°34'1111.3
2014-Nov-19 03:33N 37°10' E 024°46'1111.2
2014-Nov-19 02:34N 37°15' E 024°59'1211.5
2014-Nov-19 01:34N 37°17' E 025°13'1111.4
2014-Nov-19 00:33N 37°19' E 025°27'1211.6
2014-Nov-18 23:33N 37°21' E 025°42'1212.3
2014-Nov-18 22:33N 37°23' E 025°57'1212.3
2014-Nov-18 21:33N 37°25' E 026°12'1211.8
2014-Nov-18 20:33N 37°27' E 026°27'1111.4
2014-Nov-18 19:33N 37°26' E 026°41'1211.4
2014-Nov-18 18:31N 37°24' E 026°56'  
Track history (hours):
 
Tides and Currents Weather Stations Pressure Air Temp Water Temp Dewpoint Dewpoint Depression Visibility Wind Speed Wind Dir Waves Ship Positions

Energy IVy

Last reported at 2014-Nov-27 10:32 UTC. Time now 2014-Nov-27 10:37 UTC.
Position N 36°07' W 005°22'.

Length 180 m; draft 6.2 m.

Type: Cargo ship. MMSI: 636091925.

Date/timePositionNaut miles runAvg speedWind from/ knotsBaromVisibWave heightAir tempDewpointWater temp
2014-Nov-27 10:32N 36°07' W 005°22'0 0.0
2014-Nov-27 09:32N 36°07' W 005°22'0 0.0
2014-Nov-27 08:32N 36°07' W 005°22'0 0.0
2014-Nov-27 07:19N 36°07' W 005°22'0 0.0
2014-Nov-27 05:26N 36°07' W 005°22'0 0.1
2014-Nov-27 04:32N 36°07' W 005°22'1 1.5
2014-Nov-27 03:33N 36°06' W 005°21'21811.9
2014-Nov-26 09:11N 37°16' W 001°03'913.8
2014-Nov-26 08:34N 37°21' W 000°55'1514.1
2014-Nov-26 07:31N 37°30' W 000°40'1413.9
2014-Nov-26 06:32N 37°40' W 000°28'1513.6
2014-Nov-26 05:24N 37°53' W 000°18'  
2014-Nov-23 11:33N 39°26' E 001°29'1211.6
2014-Nov-23 10:33N 39°21' E 001°42'1111.4
2014-Nov-23 09:33N 39°16' E 001°56'1111.1
2014-Nov-23 08:33N 39°11' E 002°08'1111.3
2014-Nov-23 07:33N 39°06' E 002°22'1111.3
2014-Nov-23 06:32N 39°02' E 002°35'1111.1
2014-Nov-23 05:33N 38°60' E 002°49'1111.1
2014-Nov-23 04:33N 38°58' E 003°03'1111.3
2014-Nov-23 03:33N 38°56' E 003°17'1111.2
2014-Nov-23 02:33N 38°54' E 003°32'1211.1
2014-Nov-23 01:31N 38°52' E 003°46'1111.1
2014-Nov-23 00:31N 38°50' E 004°00'1111.0
2014-Nov-22 23:31N 38°48' E 004°14'1111.1
2014-Nov-22 22:33N 38°46' E 004°28'4012.0
2014-Nov-22 19:14N 38°38' E 005°18'2411.6
2014-Nov-22 17:10N 38°33' E 005°48'711.1
2014-Nov-22 16:33N 38°32' E 005°56'2511.2
2014-Nov-22 14:22N 38°27' E 006°27'3612.0
2014-Nov-22 11:21N 38°19' E 007°12'10 8.8
2014-Nov-22 10:10N 38°17' E 007°25'4311.3
2014-Nov-22 06:20N 38°07' E 008°18'1311.1
2014-Nov-22 05:10N 38°04' E 008°34'4110.7
2014-Nov-22 01:20N 37°54' E 009°25'910.8
2014-Nov-22 00:33N 37°52' E 009°35'  
2014-Nov-19 13:34N 36°24' E 022°49'4310.1
2014-Nov-19 09:21N 36°37' E 023°39'1810.0
2014-Nov-19 07:33N 36°47' E 023°59'1010.6
2014-Nov-19 06:34N 36°52' E 024°10'1111.1
2014-Nov-19 05:33N 36°58' E 024°22'1211.5
2014-Nov-19 04:33N 37°04' E 024°34'1111.3
2014-Nov-19 03:33N 37°10' E 024°46'1111.2
2014-Nov-19 02:34N 37°15' E 024°59'1211.5
2014-Nov-19 01:34N 37°17' E 025°13'1111.4
2014-Nov-19 00:33N 37°19' E 025°27'1211.6
2014-Nov-18 23:33N 37°21' E 025°42'1212.3
2014-Nov-18 22:33N 37°23' E 025°57'1212.3
2014-Nov-18 21:33N 37°25' E 026°12'1211.8
2014-Nov-18 20:33N 37°27' E 026°27'1111.4
2014-Nov-18 19:33N 37°26' E 026°41'1211.4
2014-Nov-18 18:31N 37°24' E 026°56'  

Dump ship's entire track history